createdAt,value
2018-12-07T00:00:21.677Z,11.51
2018-12-07T00:02:50.002Z,11.50
2018-12-07T00:05:18.260Z,11.48
2018-12-07T00:07:46.532Z,11.49
2018-12-07T00:10:14.817Z,11.55
2018-12-07T00:12:43.035Z,11.55
2018-12-07T00:15:11.311Z,11.58
2018-12-07T00:17:39.637Z,11.56
2018-12-07T00:20:08.852Z,11.59
2018-12-07T00:22:37.107Z,11.56
2018-12-07T00:25:17.793Z,11.60
2018-12-07T00:27:46.169Z,11.58
2018-12-07T00:30:14.410Z,11.56
2018-12-07T00:32:42.842Z,11.56
2018-12-07T00:35:11.069Z,11.59
2018-12-07T00:37:39.325Z,11.55
2018-12-07T00:40:07.895Z,11.52
2018-12-07T00:42:36.147Z,11.58
2018-12-07T00:45:05.250Z,11.55
2018-12-07T00:47:33.497Z,11.56
2018-12-07T00:50:01.728Z,11.60
2018-12-07T00:52:30.003Z,11.54
2018-12-07T00:54:58.226Z,11.54
2018-12-07T00:57:26.484Z,11.55
2018-12-07T00:59:54.734Z,11.55
2018-12-07T01:02:22.930Z,11.50
2018-12-07T01:04:51.161Z,11.51
2018-12-07T01:07:19.462Z,11.58
2018-12-07T01:09:47.748Z,11.56
2018-12-07T01:12:16.149Z,11.51
2018-12-07T01:14:44.395Z,11.55
2018-12-07T01:17:12.637Z,11.52
2018-12-07T01:19:40.898Z,11.55
2018-12-07T01:22:09.154Z,11.51
2018-12-07T01:24:37.422Z,11.53
2018-12-07T01:27:05.710Z,11.54
2018-12-07T01:29:33.929Z,11.51
2018-12-07T01:32:02.387Z,11.53
2018-12-07T01:34:30.658Z,11.53
2018-12-07T01:36:58.994Z,11.54
2018-12-07T01:39:27.209Z,11.52
2018-12-07T01:41:55.527Z,11.48
2018-12-07T01:44:23.799Z,11.49
2018-12-07T01:46:52.059Z,11.53
2018-12-07T01:49:20.284Z,11.45
2018-12-07T01:51:48.558Z,11.46
2018-12-07T01:54:16.813Z,11.49
2018-12-07T01:56:45.025Z,11.49
2018-12-07T01:59:13.290Z,11.44
2018-12-07T02:01:42.316Z,11.44
2018-12-07T02:04:10.590Z,11.50
2018-12-07T02:06:38.934Z,11.46
2018-12-07T02:09:07.699Z,11.44
2018-12-07T02:11:36.227Z,11.44
2018-12-07T02:14:05.548Z,11.42
2018-12-07T02:16:34.025Z,11.43
2018-12-07T02:19:02.334Z,11.48
2018-12-07T02:21:30.567Z,11.45
2018-12-07T02:23:58.776Z,11.48
2018-12-07T02:26:27.095Z,11.45
2018-12-07T02:28:55.357Z,11.47
2018-12-07T02:31:23.663Z,11.47
2018-12-07T02:33:52.129Z,11.44
2018-12-07T02:36:20.352Z,11.44
2018-12-07T02:38:48.586Z,11.43
2018-12-07T02:41:16.810Z,11.45
2018-12-07T02:43:45.037Z,11.44
2018-12-07T02:46:13.255Z,11.49
2018-12-07T02:48:41.517Z,11.44
2018-12-07T02:51:09.753Z,11.46
2018-12-07T02:53:38.003Z,11.46
2018-12-07T02:56:06.297Z,11.46
2018-12-07T02:58:34.490Z,11.47
2018-12-07T03:01:02.791Z,11.47
2018-12-07T03:03:30.999Z,11.51
2018-12-07T03:05:59.239Z,11.48
2018-12-07T03:08:27.477Z,11.52
2018-12-07T03:10:55.755Z,11.47
2018-12-07T03:13:24.033Z,11.45
2018-12-07T03:15:52.380Z,11.45
2018-12-07T03:18:28.937Z,11.40
2018-12-07T03:20:57.275Z,11.42
2018-12-07T03:23:25.722Z,11.40
2018-12-07T03:25:54.148Z,11.39
2018-12-07T03:28:22.469Z,11.45
2018-12-07T03:30:50.785Z,11.44
2018-12-07T03:33:19.032Z,11.49
2018-12-07T03:35:47.271Z,11.49
2018-12-07T03:38:15.591Z,11.51
2018-12-07T03:40:43.846Z,11.50
2018-12-07T03:43:12.096Z,11.47
2018-12-07T03:45:40.363Z,11.45
2018-12-07T03:48:08.552Z,11.43
2018-12-07T03:50:36.748Z,11.48
2018-12-07T03:53:04.975Z,11.52
2018-12-07T03:55:33.409Z,11.48
2018-12-07T03:58:01.652Z,11.45
2018-12-07T04:00:29.981Z,11.46
2018-12-07T04:02:58.226Z,11.44
2018-12-07T04:05:26.438Z,11.45
2018-12-07T04:07:54.672Z,11.50
2018-12-07T04:10:22.921Z,11.51
2018-12-07T04:12:51.246Z,11.52
2018-12-07T04:15:19.608Z,11.56
2018-12-07T04:17:47.820Z,11.58
2018-12-07T04:20:16.059Z,11.56
2018-12-07T04:22:44.275Z,11.56
2018-12-07T04:25:12.540Z,11.55
2018-12-07T04:27:40.775Z,11.53
2018-12-07T04:30:23.475Z,11.54
2018-12-07T04:32:51.725Z,11.58
2018-12-07T04:35:19.980Z,11.56
2018-12-07T04:37:48.336Z,11.55
2018-12-07T04:40:16.653Z,11.50
2018-12-07T04:42:44.907Z,11.50
2018-12-07T04:45:13.223Z,11.58
2018-12-07T04:47:41.522Z,11.54
2018-12-07T04:50:09.852Z,11.54
2018-12-07T04:52:38.177Z,11.59
2018-12-07T04:55:06.527Z,11.59
2018-12-07T04:57:34.975Z,11.55
2018-12-07T05:00:03.300Z,11.59
2018-12-07T05:02:31.553Z,11.62
2018-12-07T05:04:59.875Z,11.60
2018-12-07T05:07:28.111Z,11.56
2018-12-07T05:09:56.343Z,11.62
2018-12-07T05:12:24.683Z,11.61
2018-12-07T05:14:52.931Z,11.64
2018-12-07T05:17:21.291Z,11.64
2018-12-07T05:19:49.569Z,11.58
2018-12-07T05:22:17.816Z,11.60
2018-12-07T05:24:46.054Z,11.66
2018-12-07T05:27:14.302Z,11.64
2018-12-07T05:29:42.581Z,11.63
2018-12-07T05:32:10.820Z,11.66
2018-12-07T05:34:39.132Z,11.61
2018-12-07T05:37:07.439Z,11.60
2018-12-07T05:39:58.090Z,11.57
2018-12-07T05:42:26.468Z,11.55
2018-12-07T05:44:54.707Z,11.60
2018-12-07T05:47:23.019Z,11.58
2018-12-07T05:49:51.263Z,11.58
2018-12-07T05:52:19.574Z,11.61
2018-12-07T05:54:47.803Z,11.60
2018-12-07T05:57:16.074Z,11.59
2018-12-07T05:59:44.331Z,11.60
2018-12-07T06:02:12.621Z,11.58
2018-12-07T06:04:40.850Z,11.61
2018-12-07T06:07:09.070Z,11.57
2018-12-07T06:09:37.347Z,11.63
2018-12-07T06:12:05.764Z,11.62
2018-12-07T06:14:34.120Z,11.65
2018-12-07T06:17:02.470Z,11.65
2018-12-07T06:19:30.872Z,11.69
2018-12-07T06:21:59.154Z,11.69
2018-12-07T06:24:27.409Z,11.71
2018-12-07T06:26:55.647Z,11.68
2018-12-07T06:29:23.870Z,11.66
2018-12-07T06:31:52.113Z,11.62
2018-12-07T06:34:20.423Z,11.66
2018-12-07T06:36:48.674Z,11.67
2018-12-07T06:39:16.907Z,11.73
2018-12-07T06:41:45.191Z,11.70
2018-12-07T06:44:13.502Z,11.72
2018-12-07T06:46:41.747Z,11.68
2018-12-07T06:49:13.987Z,11.69
2018-12-07T06:51:43.505Z,11.71
2018-12-07T06:54:11.908Z,11.70
2018-12-07T06:56:40.224Z,11.73
2018-12-07T06:59:08.468Z,11.68
2018-12-07T07:01:36.798Z,11.74
2018-12-07T07:04:05.183Z,11.71
2018-12-07T07:06:33.449Z,11.73
2018-12-07T07:09:01.775Z,11.72
2018-12-07T07:11:30.025Z,11.79
2018-12-07T07:13:58.262Z,11.77
2018-12-07T07:16:26.549Z,11.79
2018-12-07T07:19:17.115Z,11.75
2018-12-07T07:21:45.383Z,11.80
2018-12-07T07:24:13.694Z,11.79
2018-12-07T07:26:42.018Z,11.75
2018-12-07T07:29:10.299Z,11.72
2018-12-07T07:31:43.435Z,11.78
2018-12-07T07:34:08.895Z,11.78
2018-12-07T07:36:37.248Z,11.80
2018-12-07T07:39:06.896Z,11.79
2018-12-07T07:41:35.194Z,11.80
2018-12-07T07:44:03.620Z,11.82
2018-12-07T07:46:31.957Z,11.79
2018-12-07T07:49:00.329Z,11.81
2018-12-07T07:51:28.545Z,11.85
2018-12-07T07:53:56.777Z,11.77
2018-12-07T07:56:25.013Z,11.78
2018-12-07T07:58:53.290Z,11.74
2018-12-07T08:01:21.522Z,11.80
2018-12-07T08:03:49.744Z,11.76
2018-12-07T08:09:10.816Z,11.78
2018-12-07T08:11:39.188Z,11.77
2018-12-07T08:16:59.913Z,11.79
2018-12-07T08:19:28.160Z,11.80
2018-12-07T08:21:56.409Z,11.77
2018-12-07T08:24:24.657Z,11.83
2018-12-07T08:26:52.885Z,11.81
2018-12-07T08:32:14.164Z,11.83
2018-12-07T08:34:42.511Z,11.88
2018-12-07T08:37:10.784Z,11.93
2018-12-07T08:39:39.135Z,11.87
2018-12-07T08:42:07.497Z,11.92
2018-12-07T08:44:35.883Z,11.86
2018-12-07T08:47:04.348Z,11.88
2018-12-07T08:49:37.855Z,11.84
2018-12-07T08:52:06.402Z,11.82
2018-12-07T08:54:34.739Z,11.88
2018-12-07T08:57:19.484Z,11.91
2018-12-07T08:59:47.813Z,11.84
2018-12-07T09:02:16.056Z,11.86
2018-12-07T09:04:44.307Z,11.86
2018-12-07T09:07:12.553Z,11.86
2018-12-07T09:09:40.814Z,11.88
2018-12-07T09:12:09.042Z,11.82
2018-12-07T09:14:37.271Z,11.84
2018-12-07T09:17:05.674Z,11.85
2018-12-07T09:19:34.113Z,11.85
2018-12-07T09:22:02.462Z,11.78
2018-12-07T09:24:30.710Z,11.87
2018-12-07T09:27:14.976Z,11.85
2018-12-07T09:29:43.219Z,11.90
2018-12-07T09:32:11.486Z,11.82
2018-12-07T09:34:39.809Z,11.88
2018-12-07T09:37:08.088Z,11.83
2018-12-07T09:39:36.331Z,11.78
2018-12-07T09:42:04.669Z,11.85
2018-12-07T09:44:33.019Z,11.85
2018-12-07T09:47:01.294Z,11.81
2018-12-07T09:49:29.537Z,11.81
2018-12-07T09:51:57.821Z,11.79
2018-12-07T09:57:18.647Z,11.81
2018-12-07T10:02:40.092Z,11.86
2018-12-07T10:05:08.513Z,11.80
2018-12-07T10:07:36.785Z,11.79
2018-12-07T10:10:05.190Z,11.77
2018-12-07T10:12:33.417Z,11.79
2018-12-07T10:15:01.682Z,11.77
2018-12-07T10:17:30.051Z,11.84
2018-12-07T10:19:58.443Z,11.82
2018-12-07T10:22:26.669Z,11.81
2018-12-07T10:27:47.427Z,11.84
2018-12-07T10:30:15.702Z,11.78
2018-12-07T10:32:43.972Z,11.80
2018-12-07T10:35:12.181Z,11.83
2018-12-07T10:37:40.459Z,11.80
2018-12-07T10:40:08.871Z,11.89
2018-12-07T10:42:37.121Z,11.92
2018-12-07T10:45:06.077Z,11.93
2018-12-07T10:47:34.402Z,11.86
2018-12-07T10:50:02.664Z,11.86
2018-12-07T10:52:30.909Z,11.84
2018-12-07T10:54:59.162Z,11.86
2018-12-07T10:57:27.402Z,11.90
2018-12-07T10:59:55.691Z,11.89
2018-12-07T11:02:29.338Z,11.86
2018-12-07T11:05:02.870Z,11.85
2018-12-07T11:07:36.598Z,11.85
2018-12-07T11:10:10.447Z,11.88
2018-12-07T11:12:44.190Z,11.82
2018-12-07T11:15:17.694Z,11.90
2018-12-07T11:17:51.463Z,11.91
2018-12-07T11:20:25.032Z,11.89
2018-12-07T11:22:58.649Z,11.90
2018-12-07T11:25:32.342Z,11.89
2018-12-07T11:28:06.164Z,11.86
2018-12-07T11:31:37.370Z,11.87
2018-12-07T11:34:12.796Z,11.85
2018-12-07T11:36:41.030Z,11.85
2018-12-07T11:39:09.782Z,11.88
2018-12-07T11:41:37.996Z,11.85
2018-12-07T11:44:06.367Z,11.84
2018-12-07T11:46:34.593Z,11.86
2018-12-07T11:49:02.797Z,11.85
2018-12-07T11:51:31.866Z,11.86
2018-12-07T11:54:00.103Z,11.90
2018-12-07T11:56:47.310Z,11.94
2018-12-07T11:59:15.543Z,11.86
2018-12-07T12:01:44.890Z,11.88
2018-12-07T12:04:13.520Z,11.88
2018-12-07T12:06:41.786Z,11.88
2018-12-07T12:09:10.294Z,11.80
2018-12-07T12:11:38.577Z,11.77
2018-12-07T12:14:06.858Z,11.84
2018-12-07T12:16:35.122Z,11.85
2018-12-07T12:19:03.407Z,11.84
2018-12-07T12:21:31.670Z,11.85
2018-12-07T12:23:59.915Z,11.82
2018-12-07T12:26:28.144Z,11.83
2018-12-07T12:28:56.460Z,11.88
2018-12-07T12:31:24.826Z,11.88
2018-12-07T12:33:53.053Z,11.84
2018-12-07T13:22:11.536Z,11.85
2018-12-07T13:24:39.787Z,11.82
2018-12-07T13:27:08.073Z,11.77
2018-12-07T13:29:36.580Z,11.80
2018-12-07T13:32:05.341Z,11.77
2018-12-07T13:34:33.633Z,11.84
2018-12-07T13:37:01.894Z,11.85
2018-12-07T13:39:30.418Z,11.80
2018-12-07T13:41:58.940Z,11.81
2018-12-07T13:44:27.521Z,11.82
2018-12-07T13:49:51.370Z,11.90
2018-12-07T13:52:19.627Z,11.84
2018-12-07T13:54:47.942Z,11.93
2018-12-07T14:00:09.660Z,11.96
2018-12-07T14:02:38.079Z,11.95
2018-12-07T14:05:06.703Z,11.96
2018-12-07T14:07:35.077Z,11.99
2018-12-07T14:10:03.693Z,11.97
2018-12-07T14:15:25.537Z,11.89
2018-12-07T14:17:54.186Z,11.90
2018-12-07T14:20:22.593Z,11.95
2018-12-07T14:22:51.229Z,11.92
2018-12-07T14:25:19.767Z,11.91
2018-12-07T14:27:48.137Z,11.86
2018-12-07T14:30:16.457Z,11.88
2018-12-07T14:32:44.952Z,11.86
2018-12-07T14:35:13.633Z,11.82
2018-12-07T14:37:42.020Z,11.84
2018-12-07T14:40:11.950Z,11.88
2018-12-07T14:43:43.734Z,11.82
2018-12-07T14:46:12.039Z,11.73
2018-12-07T14:48:40.299Z,11.74
2018-12-07T14:51:08.918Z,11.84
2018-12-07T14:53:37.368Z,11.80
2018-12-07T14:56:05.860Z,11.79
2018-12-07T14:58:34.562Z,11.74
2018-12-07T15:01:03.163Z,11.72
2018-12-07T15:03:31.544Z,11.75
2018-12-07T15:05:59.964Z,11.80
2018-12-07T15:08:28.429Z,11.85
2018-12-07T15:10:57.018Z,11.80
2018-12-07T15:13:25.554Z,11.74
2018-12-07T15:15:53.874Z,11.78
2018-12-07T15:18:22.475Z,11.79
2018-12-07T15:20:54.326Z,11.88
2018-12-07T15:23:22.666Z,11.81
2018-12-07T15:26:07.809Z,11.80
2018-12-07T15:28:36.611Z,11.81
2018-12-07T15:31:05.204Z,11.85
2018-12-07T15:33:33.807Z,11.80
2018-12-07T15:36:02.275Z,11.75
2018-12-07T15:38:30.832Z,11.83
2018-12-07T15:41:00.687Z,11.85
2018-12-07T15:43:29.201Z,11.79
2018-12-07T15:45:57.637Z,11.79
2018-12-07T15:48:26.015Z,11.75
2018-12-07T15:50:54.496Z,11.73
2018-12-07T15:53:23.010Z,11.79
2018-12-07T15:55:51.492Z,11.72
2018-12-07T15:58:20.069Z,11.77
2018-12-07T16:00:48.545Z,11.78
2018-12-07T16:06:09.802Z,11.80
2018-12-07T16:08:38.320Z,11.78
2018-12-07T16:11:06.932Z,11.68
2018-12-07T16:13:35.384Z,11.65
2018-12-07T16:16:03.761Z,11.65
2018-12-07T16:18:32.702Z,11.67
2018-12-07T16:21:01.340Z,11.63
2018-12-07T16:23:29.857Z,11.61
2018-12-07T16:25:58.821Z,11.58
2018-12-07T16:28:27.711Z,11.52
2018-12-07T16:30:56.536Z,11.54
2018-12-07T16:33:25.073Z,11.56
2018-12-07T16:35:53.463Z,11.62
2018-12-07T16:38:22.009Z,11.62
2018-12-07T16:40:50.491Z,11.61
2018-12-07T16:43:19.053Z,11.57
2018-12-07T16:45:47.607Z,11.57
2018-12-07T16:48:16.310Z,11.56
2018-12-07T16:50:44.735Z,11.56
2018-12-07T16:53:13.359Z,11.58
2018-12-07T16:55:41.853Z,11.58
2018-12-07T16:58:10.697Z,11.56
2018-12-07T17:00:39.119Z,11.58
2018-12-07T17:03:07.414Z,11.60
2018-12-07T17:05:35.708Z,11.64
2018-12-07T17:08:04.130Z,11.60
2018-12-07T17:10:32.606Z,11.59
2018-12-07T17:13:01.025Z,11.55
2018-12-07T17:15:29.793Z,11.59
2018-12-07T17:17:58.276Z,11.62
2018-12-07T17:20:26.708Z,11.61
2018-12-07T17:22:55.272Z,11.66
2018-12-07T17:25:23.752Z,11.60
2018-12-07T17:27:52.311Z,11.62
2018-12-07T17:30:21.113Z,11.63
2018-12-07T17:32:49.511Z,11.63
2018-12-07T17:35:17.857Z,11.65
2018-12-07T17:37:46.274Z,11.61
2018-12-07T17:40:14.568Z,11.60
2018-12-07T17:42:42.882Z,11.54
2018-12-07T17:45:11.302Z,11.56
2018-12-07T17:47:40.010Z,11.55
2018-12-07T17:50:09.262Z,11.56
2018-12-07T17:52:38.016Z,11.53
2018-12-07T17:55:06.513Z,11.50
2018-12-07T17:57:34.875Z,11.53
2018-12-07T18:00:03.480Z,11.51
2018-12-07T18:02:32.112Z,11.54
2018-12-07T18:05:00.579Z,11.55
2018-12-07T18:07:29.126Z,11.58
2018-12-07T18:09:57.876Z,11.57
2018-12-07T18:12:26.347Z,11.59
2018-12-07T18:14:54.989Z,11.53
2018-12-07T18:17:23.453Z,11.52
2018-12-07T18:19:53.382Z,11.55
2018-12-07T18:22:22.000Z,11.57
2018-12-07T18:24:50.700Z,11.56
2018-12-07T18:27:19.257Z,11.55
2018-12-07T18:29:47.723Z,11.50
2018-12-07T18:32:15.944Z,11.55
2018-12-07T18:34:44.186Z,11.57
2018-12-07T18:37:12.604Z,11.53
2018-12-07T18:39:41.190Z,11.46
2018-12-07T18:42:09.767Z,11.50
2018-12-07T18:44:38.291Z,11.53
2018-12-07T18:47:06.955Z,11.53
2018-12-07T18:49:35.682Z,11.50
2018-12-07T18:52:04.154Z,11.54
2018-12-07T18:54:32.691Z,11.56
2018-12-07T18:57:01.228Z,11.48
2018-12-07T18:59:29.587Z,11.47
2018-12-07T19:01:58.312Z,11.47
2018-12-07T19:04:26.802Z,11.49
2018-12-07T19:06:55.536Z,11.48
2018-12-07T19:09:23.971Z,11.47
2018-12-07T19:11:52.805Z,11.49
2018-12-07T19:14:21.391Z,11.45
2018-12-07T19:16:49.937Z,11.48
2018-12-07T19:19:18.290Z,11.44
2018-12-07T19:21:46.578Z,11.41
2018-12-07T19:24:15.027Z,11.41
2018-12-07T19:26:43.571Z,11.36
2018-12-07T19:29:12.010Z,11.38
2018-12-07T19:31:40.566Z,11.40
2018-12-07T19:34:09.115Z,11.47
2018-12-07T19:36:37.695Z,11.38
2018-12-07T19:39:09.144Z,11.35
2018-12-07T19:41:37.796Z,11.36
2018-12-07T19:44:06.769Z,11.35
2018-12-07T19:46:35.239Z,11.34
2018-12-07T19:49:03.586Z,11.34
2018-12-07T19:51:31.915Z,11.33
2018-12-07T19:54:00.296Z,11.29
2018-12-07T19:56:28.733Z,11.28
2018-12-07T19:58:57.059Z,11.24
2018-12-07T20:01:25.431Z,11.22
2018-12-07T20:03:54.109Z,11.20
2018-12-07T20:06:22.751Z,11.17
2018-12-07T20:08:51.152Z,11.10
2018-12-07T20:11:19.877Z,11.13
2018-12-07T20:13:49.124Z,11.19
2018-12-07T20:16:17.609Z,11.12
2018-12-07T20:18:46.275Z,11.23
2018-12-07T20:21:15.070Z,11.16
2018-12-07T20:23:43.640Z,10.93
2018-12-07T20:26:12.278Z,10.70
2018-12-07T20:28:40.730Z,10.64
2018-12-07T20:31:09.145Z,10.53
2018-12-07T20:33:37.711Z,10.38
2018-12-07T20:36:06.449Z,10.30
2018-12-07T20:38:35.052Z,10.23
2018-12-07T20:41:03.496Z,10.11
2018-12-07T20:43:31.865Z,10.09
2018-12-07T20:46:01.944Z,10.03
2018-12-07T20:48:30.570Z,10.05
2018-12-07T20:50:59.285Z,10.11
2018-12-07T20:53:28.167Z,9.93
2018-12-07T20:55:56.575Z,9.87
2018-12-07T20:58:25.167Z,9.88
2018-12-07T21:00:59.272Z,9.90
2018-12-07T21:03:51.380Z,9.97
2018-12-07T21:06:36.054Z,9.86
2018-12-07T21:09:24.183Z,9.80
2018-12-07T21:12:02.409Z,9.72
2018-12-07T21:14:50.158Z,9.63
2018-12-07T21:17:26.594Z,9.65
2018-12-07T21:20:01.381Z,9.61
2018-12-07T21:25:23.147Z,9.52
2018-12-07T21:30:55.459Z,9.45
2018-12-07T21:33:31.388Z,9.41
2018-12-07T21:36:33.603Z,9.37
2018-12-07T21:39:02.100Z,9.30
2018-12-07T21:41:30.792Z,9.32
2018-12-07T21:43:59.269Z,9.25
2018-12-07T21:46:28.112Z,9.18
2018-12-07T21:48:56.622Z,9.10
2018-12-07T21:51:30.955Z,9.11
2018-12-07T21:53:59.623Z,9.07
2018-12-07T21:56:28.211Z,9.03
2018-12-07T21:58:56.913Z,8.99
2018-12-07T22:01:25.514Z,9.02
2018-12-07T22:03:54.104Z,8.98
2018-12-07T22:06:22.756Z,8.83
2018-12-07T22:08:51.252Z,8.83
2018-12-07T22:11:19.729Z,8.88
2018-12-07T22:13:48.416Z,8.84
2018-12-07T22:19:09.859Z,8.72
2018-12-07T22:21:38.371Z,8.63
2018-12-07T22:24:06.912Z,8.65
2018-12-07T22:26:35.612Z,8.57
2018-12-07T22:29:04.107Z,8.59
2018-12-07T22:31:42.954Z,8.48
2018-12-07T22:34:11.710Z,8.46
2018-12-07T22:36:40.264Z,8.44
2018-12-07T22:39:09.028Z,8.40
2018-12-07T22:41:37.523Z,8.35
2018-12-07T22:44:05.863Z,8.43
2018-12-07T22:46:34.245Z,8.36
2018-12-07T22:49:02.792Z,8.37
2018-12-07T22:51:31.128Z,8.35
2018-12-07T22:53:59.443Z,8.36
2018-12-07T22:56:27.709Z,8.37
2018-12-07T22:58:55.988Z,8.41
2018-12-07T23:01:24.468Z,8.42
2018-12-07T23:03:52.764Z,8.44
2018-12-07T23:06:21.017Z,8.40
2018-12-07T23:08:49.386Z,8.31
2018-12-07T23:11:17.669Z,8.30
2018-12-07T23:13:46.016Z,8.36
2018-12-07T23:16:14.391Z,8.36
2018-12-07T23:18:42.717Z,8.41
2018-12-07T23:21:11.120Z,8.35
2018-12-07T23:23:40.248Z,8.33
2018-12-07T23:26:08.574Z,8.35
2018-12-07T23:28:36.971Z,8.38
2018-12-07T23:31:05.248Z,8.33
2018-12-07T23:33:33.563Z,8.35
2018-12-07T23:36:01.882Z,8.33
2018-12-07T23:38:30.346Z,8.30
2018-12-07T23:40:58.615Z,8.33
2018-12-07T23:43:26.849Z,8.32
2018-12-07T23:45:55.265Z,8.34
2018-12-07T23:48:23.748Z,8.36
2018-12-07T23:50:51.995Z,8.34
2018-12-07T23:53:20.222Z,8.36
2018-12-07T23:55:48.493Z,8.34
2018-12-07T23:58:16.859Z,8.37
